createdAt,value
2018-10-17T00:01:05.109Z,91.61
2018-10-17T00:03:33.945Z,92.04
2018-10-17T00:06:02.754Z,91.96
2018-10-17T00:08:31.659Z,91.86
2018-10-17T00:11:00.570Z,91.71
2018-10-17T00:13:29.270Z,91.89
2018-10-17T00:16:02.754Z,92.26
2018-10-17T00:18:31.495Z,92.66
2018-10-17T00:21:00.239Z,92.41
2018-10-17T00:23:29.142Z,92.16
2018-10-17T00:26:02.739Z,92.39
2018-10-17T00:28:34.456Z,91.87
2018-10-17T00:31:03.766Z,92.25
2018-10-17T00:33:32.676Z,91.86
2018-10-17T00:36:02.494Z,92.39
2018-10-17T00:38:31.272Z,92.25
2018-10-17T00:41:00.209Z,92.42
2018-10-17T00:43:29.019Z,92.17
2018-10-17T00:45:58.936Z,92.04
2018-10-17T00:48:27.821Z,92.56
2018-10-17T00:50:56.757Z,91.94
2018-10-17T00:53:25.538Z,92.63
2018-10-17T00:55:54.295Z,92.50
2018-10-17T00:58:23.261Z,93.07
2018-10-17T01:00:51.909Z,92.67
2018-10-17T01:03:20.627Z,93.05
2018-10-17T01:05:49.370Z,92.84
2018-10-17T01:08:18.077Z,92.63
2018-10-17T01:10:46.684Z,92.56
2018-10-17T01:13:15.461Z,92.76
2018-10-17T01:15:44.106Z,93.08
2018-10-17T01:18:12.676Z,92.75
2018-10-17T01:20:41.392Z,92.84
2018-10-17T01:23:10.256Z,93.25
2018-10-17T01:25:38.889Z,92.93
2018-10-17T01:28:07.547Z,93.35
2018-10-17T01:30:36.187Z,93.38
2018-10-17T01:33:04.998Z,92.87
2018-10-17T01:35:33.815Z,93.30
2018-10-17T01:38:02.499Z,93.38
2018-10-17T01:40:31.131Z,93.31
2018-10-17T01:42:59.881Z,94.16
2018-10-17T01:45:28.580Z,93.42
2018-10-17T01:47:58.397Z,93.57
2018-10-17T01:50:26.933Z,93.51
2018-10-17T01:52:55.593Z,93.55
2018-10-17T01:55:24.516Z,93.74
2018-10-17T01:57:53.291Z,93.54
2018-10-17T02:00:22.018Z,93.21
2018-10-17T02:02:50.765Z,93.29
2018-10-17T02:05:19.434Z,93.71
2018-10-17T02:07:48.156Z,94.37
2018-10-17T02:10:16.774Z,94.00
2018-10-17T02:12:45.473Z,94.51
2018-10-17T02:15:14.046Z,93.95
2018-10-17T02:17:42.800Z,93.76
2018-10-17T02:20:11.439Z,94.05
2018-10-17T02:22:40.169Z,93.91
2018-10-17T02:25:08.795Z,93.76
2018-10-17T02:27:37.531Z,94.29
2018-10-17T02:30:06.928Z,93.95
2018-10-17T02:32:35.552Z,94.05
2018-10-17T02:35:09.926Z,94.28
2018-10-17T02:37:38.460Z,93.83
2018-10-17T02:40:07.184Z,93.66
2018-10-17T02:42:35.966Z,94.22
2018-10-17T02:45:04.786Z,93.79
2018-10-17T02:47:33.525Z,94.30
2018-10-17T02:50:06.450Z,93.61
2018-10-17T02:52:35.532Z,93.82
2018-10-17T02:55:04.337Z,94.24
2018-10-17T02:57:33.058Z,94.65
2018-10-17T03:00:02.234Z,93.97
2018-10-17T03:02:31.036Z,94.40
2018-10-17T03:04:59.786Z,94.02
2018-10-17T03:07:28.647Z,94.38
2018-10-17T03:09:57.331Z,94.73
2018-10-17T03:12:26.170Z,94.78
2018-10-17T03:14:55.131Z,94.66
2018-10-17T03:17:23.693Z,94.58
2018-10-17T03:19:52.398Z,93.97
2018-10-17T03:22:21.109Z,94.91
2018-10-17T03:24:49.892Z,94.88
2018-10-17T03:27:18.579Z,94.61
2018-10-17T03:29:47.216Z,95.08
2018-10-17T03:32:15.906Z,94.38
2018-10-17T03:34:44.576Z,93.93
2018-10-17T03:37:13.252Z,94.56
2018-10-17T03:39:41.844Z,95.15
2018-10-17T03:42:10.534Z,94.61
2018-10-17T03:44:39.307Z,94.68
2018-10-17T03:47:08.059Z,94.84
2018-10-17T03:49:36.694Z,94.71
2018-10-17T03:52:05.800Z,94.68
2018-10-17T03:54:34.402Z,94.38
2018-10-17T03:57:03.004Z,94.61
2018-10-17T03:59:31.810Z,94.46
2018-10-17T04:02:00.373Z,94.34
2018-10-17T04:04:29.043Z,95.53
2018-10-17T04:06:57.798Z,94.68
2018-10-17T04:09:26.471Z,94.57
2018-10-17T04:11:55.218Z,94.44
2018-10-17T04:14:23.915Z,94.33
2018-10-17T04:16:52.700Z,94.61
2018-10-17T04:19:21.562Z,94.64
2018-10-17T04:21:50.097Z,94.95
2018-10-17T04:24:18.745Z,95.17
2018-10-17T04:26:48.134Z,95.28
2018-10-17T04:29:17.049Z,94.82
2018-10-17T04:31:45.764Z,95.40
2018-10-17T04:34:14.560Z,95.27
2018-10-17T04:36:43.297Z,94.90
2018-10-17T04:39:12.701Z,94.99
2018-10-17T04:41:41.844Z,95.35
2018-10-17T04:44:11.824Z,95.08
2018-10-17T04:46:40.902Z,95.07
2018-10-17T04:49:10.284Z,95.30
2018-10-17T04:51:38.859Z,95.29
2018-10-17T04:54:07.860Z,94.95
2018-10-17T04:56:36.634Z,95.58
2018-10-17T04:59:05.547Z,95.34
2018-10-17T05:01:34.382Z,95.67
2018-10-17T05:04:03.037Z,95.24
2018-10-17T05:06:31.759Z,95.20
2018-10-17T05:09:00.636Z,95.45
2018-10-17T05:11:29.322Z,95.45
2018-10-17T05:13:58.012Z,95.52
2018-10-17T05:16:27.711Z,95.26
2018-10-17T05:18:56.520Z,95.29
2018-10-17T05:21:25.185Z,95.33
2018-10-17T05:23:54.028Z,94.65
2018-10-17T05:26:22.818Z,95.64
2018-10-17T05:28:51.570Z,95.61
2018-10-17T05:31:20.338Z,95.51
2018-10-17T05:33:49.125Z,95.00
2018-10-17T05:36:17.819Z,95.24
2018-10-17T05:38:46.494Z,95.79
2018-10-17T05:41:15.280Z,96.07
2018-10-17T05:43:43.964Z,95.32
2018-10-17T05:46:12.848Z,95.65
2018-10-17T05:48:41.657Z,95.71
2018-10-17T05:51:10.500Z,95.22
2018-10-17T05:53:39.128Z,95.53
2018-10-17T05:56:07.800Z,95.46
2018-10-17T05:58:36.448Z,95.41
2018-10-17T06:01:05.562Z,94.98
2018-10-17T06:03:34.301Z,95.83
2018-10-17T06:06:03.030Z,95.62
2018-10-17T06:08:32.028Z,95.16
2018-10-17T06:11:00.785Z,95.95
2018-10-17T06:13:29.504Z,95.67
2018-10-17T06:15:58.292Z,95.59
2018-10-17T06:18:27.092Z,96.00
2018-10-17T06:20:55.899Z,95.48
2018-10-17T06:23:25.279Z,95.68
2018-10-17T06:25:54.241Z,95.71
2018-10-17T06:28:23.081Z,95.77
2018-10-17T06:30:52.120Z,95.38
2018-10-17T06:33:20.765Z,95.89
2018-10-17T06:35:49.684Z,95.52
2018-10-17T06:38:18.485Z,95.69
2018-10-17T06:40:47.327Z,95.53
2018-10-17T06:43:16.120Z,95.83
2018-10-17T06:45:44.978Z,95.92
2018-10-17T06:48:13.734Z,95.92
2018-10-17T06:50:42.847Z,95.85
2018-10-17T06:53:11.551Z,95.89
2018-10-17T06:55:40.627Z,95.79
2018-10-17T06:58:09.701Z,95.96
2018-10-17T07:00:38.334Z,95.69
2018-10-17T07:03:07.096Z,95.86
2018-10-17T07:05:35.848Z,95.81
2018-10-17T07:08:04.616Z,96.03
2018-10-17T07:10:33.331Z,95.98
2018-10-17T07:13:02.145Z,96.01
2018-10-17T07:15:31.031Z,95.81
2018-10-17T07:17:59.628Z,95.75
2018-10-17T07:20:28.266Z,95.79
2018-10-17T07:22:56.943Z,95.41
2018-10-17T07:25:25.678Z,95.92
2018-10-17T07:27:54.381Z,95.59
2018-10-17T07:30:23.334Z,95.28
2018-10-17T07:32:52.022Z,95.51
2018-10-17T07:35:20.824Z,95.21
2018-10-17T07:37:49.753Z,95.37
2018-10-17T07:40:18.588Z,94.60
2018-10-17T07:42:47.252Z,94.46
2018-10-17T07:45:15.926Z,94.92
2018-10-17T07:47:45.092Z,94.41
2018-10-17T07:50:14.895Z,94.18
2018-10-17T07:52:43.718Z,93.65
2018-10-17T07:55:13.013Z,93.73
2018-10-17T07:57:41.864Z,93.67
2018-10-17T08:00:13.569Z,93.38
2018-10-17T08:02:42.268Z,93.56
2018-10-17T08:05:11.407Z,93.17
2018-10-17T08:07:40.170Z,93.40
2018-10-17T08:10:12.624Z,92.62
2018-10-17T08:12:41.270Z,92.90
2018-10-17T08:15:10.532Z,92.52
2018-10-17T08:17:39.277Z,92.29
2018-10-17T08:20:11.039Z,92.30
2018-10-17T08:22:40.326Z,91.84
2018-10-17T08:25:10.320Z,91.57
2018-10-17T08:27:39.171Z,91.30
2018-10-17T08:30:09.693Z,91.11
2018-10-17T08:32:40.427Z,90.83
2018-10-17T08:35:09.749Z,90.71
2018-10-17T08:37:39.251Z,90.53
2018-10-17T08:40:10.039Z,90.42
2018-10-17T08:42:38.717Z,89.97
2018-10-17T08:45:08.077Z,89.94
2018-10-17T08:47:36.631Z,89.73
2018-10-17T08:50:06.917Z,89.43
2018-10-17T08:52:35.677Z,89.33
2018-10-17T08:55:04.923Z,88.62
2018-10-17T08:57:33.666Z,87.77
2018-10-17T09:00:03.052Z,86.85
2018-10-17T09:02:32.007Z,86.40
2018-10-17T09:05:01.037Z,86.01
2018-10-17T09:07:31.376Z,86.49
2018-10-17T09:10:00.268Z,85.61
2018-10-17T09:12:29.132Z,84.89
2018-10-17T09:14:58.214Z,84.95
2018-10-17T09:17:27.242Z,83.85
2018-10-17T09:19:56.505Z,83.21
2018-10-17T09:22:26.329Z,82.86
2018-10-17T09:24:54.954Z,82.41
2018-10-17T09:27:23.692Z,80.55
2018-10-17T09:30:03.490Z,79.09
2018-10-17T09:32:32.827Z,77.98
2018-10-17T09:35:01.714Z,77.51
2018-10-17T09:37:30.396Z,76.26
2018-10-17T09:40:00.966Z,75.33
2018-10-17T09:42:29.869Z,72.70
2018-10-17T09:44:58.603Z,72.07
2018-10-17T09:47:27.859Z,70.39
2018-10-17T09:50:05.756Z,68.67
2018-10-17T09:52:34.851Z,67.69
2018-10-17T09:55:03.834Z,68.11
2018-10-17T09:57:32.798Z,67.82
2018-10-17T10:00:08.455Z,67.09
2018-10-17T10:02:40.042Z,67.51
2018-10-17T10:05:08.891Z,68.03
2018-10-17T10:07:39.473Z,67.73
2018-10-17T10:10:12.318Z,67.53
2018-10-17T10:12:40.998Z,66.61
2018-10-17T10:15:10.657Z,66.70
2018-10-17T10:17:39.764Z,66.09
2018-10-17T10:20:08.781Z,65.01
2018-10-17T10:22:37.548Z,64.47
2018-10-17T10:25:07.059Z,64.40
2018-10-17T10:27:35.950Z,63.88
2018-10-17T10:30:07.269Z,63.97
2018-10-17T10:32:40.692Z,63.61
2018-10-17T10:35:09.860Z,64.20
2018-10-17T10:37:38.951Z,63.49
2018-10-17T10:40:10.398Z,63.57
2018-10-17T10:42:39.104Z,63.30
2018-10-17T10:45:08.628Z,63.25
2018-10-17T10:47:37.642Z,62.94
2018-10-17T10:50:09.591Z,63.22
2018-10-17T10:52:38.297Z,62.51
2018-10-17T10:55:08.127Z,62.26
2018-10-17T10:57:37.148Z,62.21
2018-10-17T11:00:16.168Z,62.19
2018-10-17T11:02:45.048Z,61.75
2018-10-17T11:05:14.274Z,61.41
2018-10-17T11:07:43.980Z,61.20
2018-10-17T11:10:18.143Z,60.71
2018-10-17T11:12:47.003Z,60.59
2018-10-17T11:15:16.111Z,60.74
2018-10-17T11:17:44.951Z,60.61
2018-10-17T11:20:13.936Z,59.86
2018-10-17T11:22:42.700Z,59.46
2018-10-17T11:25:14.894Z,58.69
2018-10-17T11:27:43.761Z,58.56
2018-10-17T11:30:15.936Z,57.48
2018-10-17T11:32:44.823Z,56.95
2018-10-17T11:35:13.748Z,57.13
2018-10-17T11:37:42.555Z,56.15
2018-10-17T11:40:12.658Z,55.33
2018-10-17T11:42:41.577Z,55.44
2018-10-17T11:45:10.349Z,52.96
2018-10-17T11:47:39.105Z,51.77
2018-10-17T11:50:09.441Z,50.50
2018-10-17T11:52:45.504Z,49.00
2018-10-17T11:55:14.421Z,48.61
2018-10-17T11:57:43.172Z,47.21
2018-10-17T12:00:13.344Z,46.88
2018-10-17T12:02:43.845Z,46.03
2018-10-17T12:05:14.251Z,45.84
2018-10-17T12:10:17.681Z,46.20
2018-10-17T12:12:46.423Z,46.22
2018-10-17T12:15:16.197Z,45.27
2018-10-17T12:17:45.548Z,45.74
2018-10-17T12:20:15.271Z,45.33
2018-10-17T12:22:47.301Z,43.31
2018-10-17T12:25:16.111Z,44.26
2018-10-17T12:27:45.271Z,44.10
2018-10-17T12:30:15.095Z,44.14
2018-10-17T12:32:49.172Z,43.39
2018-10-17T12:35:18.681Z,44.17
2018-10-17T12:37:47.426Z,43.46
2018-10-17T12:40:16.363Z,43.25
2018-10-17T12:42:46.885Z,42.03
2018-10-17T12:45:16.048Z,42.43
2018-10-17T12:47:44.788Z,41.20
2018-10-17T12:50:13.872Z,40.66
2018-10-17T12:52:48.367Z,40.64
2018-10-17T12:55:17.088Z,39.06
2018-10-17T12:57:46.002Z,40.21
2018-10-17T13:00:17.740Z,40.54
2018-10-17T13:02:55.509Z,40.56
2018-10-17T13:05:24.428Z,40.58
2018-10-17T13:07:53.164Z,41.37
2018-10-17T13:10:21.882Z,40.71
2018-10-17T13:12:51.332Z,40.51
2018-10-17T13:15:20.343Z,40.95
2018-10-17T13:17:49.119Z,39.50
2018-10-17T13:20:18.047Z,39.86
2018-10-17T13:22:49.590Z,39.48
2018-10-17T13:25:18.272Z,40.53
2018-10-17T13:27:47.827Z,40.99
2018-10-17T13:30:17.584Z,41.06
2018-10-17T13:32:54.263Z,41.14
2018-10-17T13:35:22.960Z,41.19
2018-10-17T13:37:52.802Z,41.39
2018-10-17T13:40:21.583Z,40.51
2018-10-17T13:42:50.794Z,39.84
2018-10-17T13:45:19.807Z,40.78
2018-10-17T13:47:48.700Z,40.89
2018-10-17T13:50:17.698Z,40.28
2018-10-17T13:52:49.791Z,39.91
2018-10-17T13:55:19.282Z,39.34
2018-10-17T13:57:48.053Z,40.03
2018-10-17T14:00:16.855Z,40.53
2018-10-17T14:02:45.553Z,40.12
2018-10-17T14:05:15.026Z,39.68
2018-10-17T14:07:44.089Z,39.71
2018-10-17T14:10:12.863Z,40.71
2018-10-17T14:12:42.052Z,39.39
2018-10-17T14:15:10.884Z,37.94
2018-10-17T14:17:39.664Z,34.23
2018-10-17T14:20:08.518Z,31.10
2018-10-17T14:22:46.772Z,28.07
2018-10-17T14:25:15.935Z,26.41
2018-10-17T14:27:44.778Z,24.79
2018-10-17T14:30:13.946Z,27.42
2018-10-17T14:32:42.633Z,29.78
2018-10-17T14:35:13.214Z,31.41
2018-10-17T14:37:42.241Z,32.44
2018-10-17T14:40:11.967Z,32.21
2018-10-17T14:42:50.063Z,30.78
2018-10-17T14:45:19.177Z,29.66
2018-10-17T14:47:48.168Z,27.90
2018-10-17T14:50:16.987Z,29.01
2018-10-17T14:52:52.768Z,29.99
2018-10-17T14:55:21.557Z,29.77
2018-10-17T14:57:50.188Z,28.51
2018-10-17T15:00:18.950Z,28.49
2018-10-17T15:02:48.885Z,30.11
2018-10-17T15:05:18.889Z,29.74
2018-10-17T15:07:47.848Z,30.47
2018-10-17T15:10:16.891Z,29.73
2018-10-17T15:12:49.699Z,30.15
2018-10-17T15:15:18.438Z,30.11
2018-10-17T15:17:49.040Z,31.19
2018-10-17T15:20:18.122Z,31.16
2018-10-17T15:22:54.500Z,31.92
2018-10-17T15:25:23.488Z,30.62
2018-10-17T15:27:52.677Z,31.15
2018-10-17T15:30:21.768Z,32.57
2018-10-17T15:33:05.002Z,32.68
2018-10-17T15:35:33.779Z,34.74
2018-10-17T15:38:02.519Z,36.58
2018-10-17T15:40:31.448Z,39.71
2018-10-17T15:43:01.101Z,41.64
2018-10-17T15:45:29.904Z,42.87
2018-10-17T15:47:58.772Z,44.96
2018-10-17T15:50:27.463Z,46.36
2018-10-17T15:52:58.859Z,47.91
2018-10-17T15:55:27.608Z,48.97
2018-10-17T15:57:57.180Z,50.13
2018-10-17T16:00:26.073Z,50.68
2018-10-17T16:03:01.976Z,52.23
2018-10-17T16:05:30.812Z,52.45
2018-10-17T16:07:59.621Z,53.33
2018-10-17T16:10:28.447Z,54.92
2018-10-17T16:12:57.200Z,55.18
2018-10-17T16:15:26.215Z,56.30
2018-10-17T16:17:55.262Z,56.42
2018-10-17T16:20:24.328Z,57.45
2018-10-17T16:22:53.112Z,58.05
2018-10-17T16:25:22.148Z,58.33
2018-10-17T16:27:51.275Z,59.12
2018-10-17T16:30:20.155Z,59.84
2018-10-17T16:32:52.584Z,60.27
2018-10-17T16:35:21.398Z,61.00
2018-10-17T16:37:50.179Z,61.56
2018-10-17T16:40:19.557Z,62.67
2018-10-17T16:42:48.196Z,62.80
2018-10-17T16:45:18.148Z,63.29
2018-10-17T16:47:47.457Z,64.05
2018-10-17T16:50:16.682Z,64.94
2018-10-17T16:52:45.673Z,65.24
2018-10-17T16:55:14.742Z,66.02
2018-10-17T16:57:43.710Z,66.48
2018-10-17T17:00:13.289Z,66.98
2018-10-17T17:02:42.263Z,67.14
2018-10-17T17:05:12.995Z,67.78
2018-10-17T17:07:41.987Z,68.70
2018-10-17T17:10:12.004Z,68.57
2018-10-17T17:12:40.933Z,69.05
2018-10-17T17:15:13.027Z,69.77
2018-10-17T17:17:42.514Z,69.84
2018-10-17T17:20:12.158Z,71.45
2018-10-17T17:22:41.617Z,71.42
2018-10-17T17:25:10.844Z,71.55
2018-10-17T17:27:39.912Z,71.58
2018-10-17T17:30:13.335Z,71.70
2018-10-17T17:32:42.109Z,72.18
2018-10-17T17:35:10.936Z,73.23
2018-10-17T17:37:39.913Z,72.72
2018-10-17T17:40:10.219Z,72.24
2018-10-17T17:42:39.041Z,73.18
2018-10-17T17:45:08.576Z,72.46
2018-10-17T17:47:37.825Z,73.93
2018-10-17T17:50:07.444Z,74.27
2018-10-17T17:52:36.370Z,74.59
2018-10-17T17:55:09.704Z,77.27
2018-10-17T17:57:39.642Z,76.83
2018-10-17T18:00:09.107Z,77.43
2018-10-17T18:02:37.791Z,78.02
2018-10-17T18:05:07.378Z,77.19
2018-10-17T18:07:36.705Z,77.32
2018-10-17T18:10:05.739Z,78.18
2018-10-17T18:12:34.784Z,77.50
2018-10-17T18:15:03.584Z,79.31
2018-10-17T18:17:32.337Z,78.45
2018-10-17T18:20:01.461Z,78.72
2018-10-17T18:22:30.727Z,78.65
2018-10-17T18:24:59.808Z,78.66
2018-10-17T18:27:28.752Z,79.10
2018-10-17T18:29:58.300Z,79.52
2018-10-17T18:32:27.533Z,80.05
2018-10-17T18:34:56.474Z,80.03
2018-10-17T18:37:25.507Z,80.62
2018-10-17T18:39:54.486Z,80.69
2018-10-17T18:42:23.462Z,80.86
2018-10-17T18:44:52.274Z,81.27
2018-10-17T18:47:21.404Z,81.28
2018-10-17T18:49:50.375Z,81.33
2018-10-17T18:52:19.217Z,81.93
2018-10-17T18:54:48.446Z,82.29
2018-10-17T18:57:17.496Z,82.60
2018-10-17T18:59:46.271Z,82.53
2018-10-17T19:02:15.078Z,83.30
2018-10-17T19:04:43.738Z,84.29
2018-10-17T19:07:12.958Z,84.04
2018-10-17T19:09:42.152Z,84.57
2018-10-17T19:12:10.956Z,84.85
2018-10-17T19:14:39.783Z,84.65
2018-10-17T19:17:09.294Z,84.79
2018-10-17T19:19:38.478Z,84.89
2018-10-17T19:22:07.428Z,85.27
2018-10-17T19:24:36.651Z,85.43
2018-10-17T19:27:05.750Z,86.29
2018-10-17T19:29:35.385Z,85.50
2018-10-17T19:32:05.972Z,85.81
2018-10-17T19:34:34.894Z,86.08
2018-10-17T19:37:03.604Z,85.61
2018-10-17T19:39:32.658Z,87.02
2018-10-17T19:42:01.547Z,86.75
2018-10-17T19:44:30.733Z,86.73
2018-10-17T19:46:59.731Z,86.50
2018-10-17T19:49:28.426Z,86.66
2018-10-17T19:51:57.829Z,86.70
2018-10-17T19:54:26.904Z,87.05
2018-10-17T19:56:56.058Z,87.22
2018-10-17T19:59:24.745Z,86.94
2018-10-17T20:01:53.636Z,87.22
2018-10-17T20:04:22.619Z,87.62
2018-10-17T20:06:51.796Z,87.40
2018-10-17T20:09:20.647Z,87.31
2018-10-17T20:11:49.411Z,87.49
2018-10-17T20:14:18.629Z,87.75
2018-10-17T20:16:47.272Z,87.83
2018-10-17T20:19:16.328Z,87.65
2018-10-17T20:21:45.274Z,88.12
2018-10-17T20:24:14.060Z,87.90
2018-10-17T20:26:42.847Z,87.45
2018-10-17T20:29:11.713Z,87.67
2018-10-17T20:31:40.526Z,87.34
2018-10-17T20:34:09.286Z,87.66
2018-10-17T20:36:37.915Z,87.36
2018-10-17T20:39:11.043Z,88.12
2018-10-17T20:41:40.232Z,87.87
2018-10-17T20:44:10.047Z,88.31
2018-10-17T20:46:38.801Z,88.27
2018-10-17T20:49:09.013Z,87.98
2018-10-17T20:51:38.096Z,88.35
2018-10-17T20:54:07.423Z,88.46
2018-10-17T20:56:36.529Z,88.99
2018-10-17T20:59:05.751Z,88.75
2018-10-17T21:01:34.878Z,88.76
2018-10-17T21:04:04.080Z,89.03
2018-10-17T21:06:32.808Z,89.54
2018-10-17T21:09:02.509Z,89.64
2018-10-17T21:11:31.322Z,89.62
2018-10-17T21:14:00.481Z,90.12
2018-10-17T21:16:29.510Z,89.86
2018-10-17T21:18:58.755Z,90.09
2018-10-17T21:21:27.418Z,91.03
2018-10-17T21:23:56.111Z,90.50
2018-10-17T21:26:24.923Z,91.16
2018-10-17T21:28:54.604Z,91.04
2018-10-17T21:31:24.184Z,90.86
2018-10-17T21:33:53.769Z,91.29
2018-10-17T21:36:22.585Z,91.63
2018-10-17T21:38:51.711Z,91.58
2018-10-17T21:41:21.324Z,91.82
2018-10-17T21:43:51.546Z,91.87
2018-10-17T21:46:20.998Z,91.99
2018-10-17T21:48:49.817Z,92.12
2018-10-17T21:51:19.213Z,91.83
2018-10-17T21:53:48.345Z,92.13
2018-10-17T21:56:17.198Z,92.37
2018-10-17T21:58:46.343Z,92.39
2018-10-17T22:01:15.060Z,92.14
2018-10-17T22:03:44.156Z,93.01
2018-10-17T22:06:12.927Z,92.98
2018-10-17T22:08:42.395Z,93.17
2018-10-17T22:11:11.124Z,93.13
2018-10-17T22:13:40.275Z,92.61
2018-10-17T22:16:09.020Z,93.61
2018-10-17T22:18:37.778Z,93.34
2018-10-17T22:21:07.077Z,93.51
2018-10-17T22:23:35.989Z,93.56
2018-10-17T22:26:04.873Z,93.64
2018-10-17T22:28:34.114Z,94.04
2018-10-17T22:31:03.030Z,94.02
2018-10-17T22:33:32.073Z,94.36
2018-10-17T22:36:00.857Z,94.12
2018-10-17T22:38:30.041Z,94.12
2018-10-17T22:40:58.858Z,94.36
2018-10-17T22:43:28.396Z,94.55
2018-10-17T22:45:58.265Z,94.61
2018-10-17T22:48:27.134Z,95.37
2018-10-17T22:50:56.002Z,94.86
2018-10-17T22:53:24.782Z,94.79
2018-10-17T22:55:53.600Z,95.02
2018-10-17T22:58:22.644Z,94.81
2018-10-17T23:00:51.633Z,94.76
2018-10-17T23:03:20.313Z,94.80
2018-10-17T23:05:49.010Z,95.29
2018-10-17T23:08:18.513Z,95.24
2018-10-17T23:10:47.642Z,95.86
2018-10-17T23:13:16.695Z,95.29
2018-10-17T23:15:45.681Z,95.70
2018-10-17T23:18:14.584Z,95.81
2018-10-17T23:20:43.655Z,95.25
2018-10-17T23:23:12.394Z,95.50
2018-10-17T23:25:41.880Z,95.37
2018-10-17T23:28:10.534Z,95.08
2018-10-17T23:30:39.299Z,95.18
2018-10-17T23:33:08.422Z,95.14
2018-10-17T23:35:37.878Z,95.08
2018-10-17T23:38:07.066Z,94.66
2018-10-17T23:40:35.843Z,94.82
2018-10-17T23:43:07.970Z,94.91
2018-10-17T23:45:37.077Z,95.77
2018-10-17T23:48:07.497Z,95.61
2018-10-17T23:50:37.754Z,96.15
2018-10-17T23:53:07.556Z,96.19
2018-10-17T23:55:37.175Z,95.90
2018-10-17T23:58:06.380Z,96.10
